Cisco, Illinois
Current Conditions -  °F | °C
As of 5:54 AM on Friday 19 Dec 2014 (Local Time) from KDEC Reporting Station
Haze Haze  
Wind Chill: 20°   Ceiling: Unl
Heat Index: 20°   Visibility: 5mi
Dew Point: 17°   Wind: 0mph
Humidity: 89%   Direction: NA
Pressure: 30.29"   Gusts: NA
Location:  40.01°N, 88.73°W
Report Text: KDEC 191154Z 00000KT 5SM BR CLR M07/M08 A3029 RMK AO2 SLP268 I1000 I6000 T10671083 11028 21072 50002
Loading
Personal Weather Stations






























Interactive Weather Map New forecast layout! Learn more

10-Day Weather Forecast

Advertisements
Track Severe Weather on mobile